createdAt,value
2018-08-25T00:02:19.343Z,4.03
2018-08-25T00:04:48.632Z,4.20
2018-08-25T00:07:17.827Z,5.87
2018-08-25T00:09:47.100Z,4.60
2018-08-25T00:12:16.356Z,3.33
2018-08-25T00:14:46.003Z,4.60
2018-08-25T00:17:15.292Z,3.77
2018-08-25T00:19:44.619Z,3.40
2018-08-25T00:22:13.950Z,6.43
2018-08-25T00:24:43.224Z,5.33
2018-08-25T00:27:12.524Z,4.03
2018-08-25T00:29:41.812Z,4.13
2018-08-25T00:32:11.058Z,3.87
2018-08-25T00:34:40.263Z,4.83
2018-08-25T00:37:09.520Z,2.73
2018-08-25T00:39:38.803Z,5.63
2018-08-25T00:42:08.119Z,9.00
2018-08-25T00:44:37.436Z,6.77
2018-08-25T00:47:06.686Z,11.00
2018-08-25T00:49:35.974Z,5.03
2018-08-25T00:52:05.226Z,7.77
2018-08-25T00:54:34.460Z,5.13
2018-08-25T00:57:03.698Z,3.57
2018-08-25T00:59:32.985Z,5.93
2018-08-25T01:02:02.316Z,14.00
2018-08-25T01:04:31.637Z,6.60
2018-08-25T01:07:00.951Z,7.67
2018-08-25T01:09:30.232Z,7.80
2018-08-25T01:11:59.453Z,7.23
2018-08-25T01:14:28.714Z,6.40
2018-08-25T01:16:57.935Z,6.63
2018-08-25T01:19:27.544Z,8.47
2018-08-25T01:21:56.827Z,6.53
2018-08-25T01:24:26.073Z,6.87
2018-08-25T01:26:55.311Z,4.00
2018-08-25T01:29:24.539Z,6.23
2018-08-25T01:31:53.767Z,7.90
2018-08-25T01:34:23.048Z,6.80
2018-08-25T01:36:52.394Z,6.53
2018-08-25T01:39:21.643Z,6.37
2018-08-25T01:41:50.895Z,4.20
2018-08-25T01:44:20.150Z,3.97
2018-08-25T01:46:49.362Z,5.70
2018-08-25T01:49:18.680Z,6.50
2018-08-25T01:51:47.933Z,5.57
2018-08-25T01:54:17.254Z,7.43
2018-08-25T01:56:46.574Z,4.47
2018-08-25T01:59:15.850Z,8.50
2018-08-25T02:01:45.123Z,9.17
2018-08-25T02:04:14.450Z,5.03
2018-08-25T02:06:43.666Z,6.00
2018-08-25T02:09:14.539Z,7.83
2018-08-25T02:11:43.710Z,4.77
2018-08-25T02:14:13.014Z,8.13
2018-08-25T02:16:42.419Z,6.23
2018-08-25T02:19:11.700Z,4.60
2018-08-25T02:21:40.930Z,5.27
2018-08-25T02:24:10.164Z,7.23
2018-08-25T02:26:39.350Z,3.30
2018-08-25T02:29:08.678Z,6.67
2018-08-25T02:31:37.911Z,4.43
2018-08-25T02:34:07.190Z,4.07
2018-08-25T02:36:36.487Z,4.93
2018-08-25T02:39:10.522Z,7.90
2018-08-25T02:41:40.843Z,5.17
2018-08-25T02:44:10.153Z,5.30
2018-08-25T02:46:39.412Z,7.77
2018-08-25T02:49:08.757Z,7.17
2018-08-25T02:51:38.048Z,3.83
2018-08-25T02:54:07.476Z,6.40
2018-08-25T02:56:42.739Z,5.20
2018-08-25T02:59:12.050Z,7.30
2018-08-25T03:01:41.299Z,8.13
2018-08-25T03:04:10.543Z,8.23
2018-08-25T03:06:39.876Z,10.47
2018-08-25T03:09:11.251Z,4.33
2018-08-25T03:11:40.523Z,5.57
2018-08-25T03:14:09.722Z,7.10
2018-08-25T03:16:39.003Z,7.27
2018-08-25T03:19:08.319Z,5.87
2018-08-25T03:21:37.557Z,6.70
2018-08-25T03:24:06.911Z,4.47
2018-08-25T03:26:36.290Z,8.20
2018-08-25T03:29:06.000Z,6.13
2018-08-25T03:31:35.260Z,5.13
2018-08-25T03:34:04.531Z,11.53
2018-08-25T03:36:33.787Z,7.57
2018-08-25T03:39:03.035Z,5.33
2018-08-25T03:41:32.270Z,5.43
2018-08-25T03:44:01.548Z,9.30
2018-08-25T03:46:30.875Z,4.90
2018-08-25T03:49:00.136Z,7.03
2018-08-25T03:51:29.402Z,4.40
2018-08-25T03:53:58.650Z,7.87
2018-08-25T03:56:28.019Z,7.63
2018-08-25T03:58:59.340Z,6.30
2018-08-25T04:01:28.691Z,6.17
2018-08-25T04:03:57.928Z,6.13
2018-08-25T04:06:27.270Z,11.03
2018-08-25T04:08:56.576Z,7.70
2018-08-25T04:11:25.806Z,4.43
2018-08-25T04:13:55.116Z,7.20
2018-08-25T04:16:24.455Z,9.07
2018-08-25T04:18:53.699Z,12.43
2018-08-25T04:21:22.941Z,9.20
2018-08-25T04:23:52.244Z,5.37
2018-08-25T04:26:21.518Z,6.47
2018-08-25T04:28:50.834Z,3.63
2018-08-25T04:31:20.103Z,5.30
2018-08-25T04:33:49.355Z,6.60
2018-08-25T04:36:18.750Z,4.07
2018-08-25T04:38:47.991Z,5.57
2018-08-25T04:41:17.330Z,5.17
2018-08-25T04:43:46.559Z,4.03
2018-08-25T04:46:15.856Z,4.17
2018-08-25T04:48:45.102Z,5.43
2018-08-25T04:51:14.798Z,3.77
2018-08-25T04:53:44.233Z,5.70
2018-08-25T04:56:13.494Z,4.87
2018-08-25T04:58:42.843Z,4.43
2018-08-25T05:01:12.099Z,2.73
2018-08-25T05:03:41.370Z,4.07
2018-08-25T05:06:10.707Z,3.83
2018-08-25T05:08:40.179Z,3.13
2018-08-25T05:11:09.503Z,8.43
2018-08-25T05:13:39.280Z,4.73
2018-08-25T05:16:08.531Z,4.07
2018-08-25T05:18:37.675Z,4.80
2018-08-25T05:21:06.953Z,9.30
2018-08-25T05:23:36.200Z,7.40
2018-08-25T05:26:05.486Z,4.80
2018-08-25T05:28:34.807Z,6.93
2018-08-25T05:31:04.140Z,5.87
2018-08-25T05:33:33.467Z,8.57
2018-08-25T05:36:02.759Z,7.87
2018-08-25T05:38:32.126Z,8.43
2018-08-25T05:41:01.379Z,7.03
2018-08-25T05:43:30.653Z,7.13
2018-08-25T05:45:59.890Z,5.97
2018-08-25T05:48:34.354Z,6.53
2018-08-25T05:51:03.643Z,3.63
2018-08-25T05:53:32.943Z,7.50
2018-08-25T05:56:02.296Z,5.03
2018-08-25T05:58:31.514Z,6.23
2018-08-25T06:01:00.829Z,4.93
2018-08-25T06:03:30.108Z,8.50
2018-08-25T06:05:59.410Z,4.63
2018-08-25T06:08:28.704Z,8.13
2018-08-25T06:10:57.925Z,5.70
2018-08-25T06:13:27.181Z,8.93
2018-08-25T06:15:56.470Z,5.50
2018-08-25T06:18:25.715Z,4.30
2018-08-25T06:20:54.915Z,5.57
2018-08-25T06:23:26.239Z,4.67
2018-08-25T06:25:55.620Z,3.40
2018-08-25T06:28:24.959Z,8.37
2018-08-25T06:30:54.244Z,4.00
2018-08-25T06:33:23.490Z,7.50
2018-08-25T06:35:52.861Z,6.93
2018-08-25T06:38:22.111Z,4.60
2018-08-25T06:40:51.852Z,5.43
2018-08-25T06:43:21.072Z,6.53
2018-08-25T06:45:55.517Z,5.60
2018-08-25T06:48:24.915Z,7.87
2018-08-25T06:50:54.172Z,9.13
2018-08-25T06:53:23.537Z,4.50
2018-08-25T06:55:53.778Z,6.77
2018-08-25T06:58:23.413Z,7.47
2018-08-25T07:00:53.303Z,10.13
2018-08-25T07:03:22.611Z,5.17
2018-08-25T07:05:51.874Z,6.20
2018-08-25T07:08:21.137Z,5.10
2018-08-25T07:10:50.479Z,5.77
2018-08-25T07:13:19.672Z,7.07
2018-08-25T07:15:48.878Z,7.60
2018-08-25T07:18:18.180Z,5.17
2018-08-25T07:20:47.431Z,3.30
2018-08-25T07:23:16.636Z,6.10
2018-08-25T07:25:45.924Z,4.07
2018-08-25T07:28:15.196Z,3.83
2018-08-25T07:30:44.471Z,3.07
2018-08-25T07:33:13.792Z,3.00
2018-08-25T07:35:43.451Z,1.63
2018-08-25T07:38:12.828Z,2.53
2018-08-25T07:40:41.988Z,1.33
2018-08-25T07:43:11.200Z,2.27
2018-08-25T07:45:40.513Z,2.27
2018-08-25T07:48:09.814Z,0.83
2018-08-25T07:50:39.194Z,1.30
2018-08-25T07:53:08.728Z,0.90
2018-08-25T07:55:38.121Z,0.60
2018-08-25T07:58:07.422Z,1.63
2018-08-25T08:00:36.722Z,1.50
2018-08-25T08:03:06.396Z,0.60
2018-08-25T08:05:35.704Z,0.43
2018-08-25T08:08:04.902Z,0.67
2018-08-25T08:10:34.164Z,0.50
2018-08-25T08:13:03.430Z,0.60
2018-08-25T08:15:33.131Z,0.27
2018-08-25T08:18:02.364Z,0.47
2018-08-25T08:20:31.628Z,1.03
2018-08-25T08:23:00.921Z,0.60
2018-08-25T08:25:30.344Z,1.17
2018-08-25T08:27:59.563Z,0.47
2018-08-25T08:30:28.862Z,0.50
2018-08-25T08:32:58.239Z,0.40
2018-08-25T08:35:27.548Z,0.90
2018-08-25T08:37:56.892Z,1.77
2018-08-25T08:40:26.151Z,1.70
2018-08-25T08:42:55.418Z,0.70
2018-08-25T08:45:24.931Z,0.40
2018-08-25T08:47:54.718Z,0.80
2018-08-25T08:50:25.197Z,0.80
2018-08-25T08:52:54.454Z,0.70
2018-08-25T08:55:23.875Z,0.80
2018-08-25T08:57:53.140Z,1.10
2018-08-25T09:00:22.562Z,0.20
2018-08-25T09:02:56.021Z,1.80
2018-08-25T09:05:25.300Z,0.50
2018-08-25T09:07:54.659Z,0.67
2018-08-25T09:10:24.103Z,0.83
2018-08-25T09:13:05.107Z,1.07
2018-08-25T09:15:34.614Z,0.83
2018-08-25T09:18:08.900Z,0.40
2018-08-25T09:20:38.317Z,1.23
2018-08-25T09:23:09.217Z,0.20
2018-08-25T09:25:41.954Z,0.27
2018-08-25T09:28:17.206Z,0.20
2018-08-25T09:30:49.636Z,1.77
2018-08-25T09:33:19.995Z,0.23
2018-08-25T09:35:49.332Z,0.20
2018-08-25T09:38:18.772Z,0.30
2018-08-25T09:40:48.383Z,0.20
2018-08-25T09:43:17.676Z,0.50
2018-08-25T09:45:47.372Z,0.80
2018-08-25T09:48:17.975Z,1.13
2018-08-25T09:50:47.333Z,1.80
2018-08-25T09:53:16.655Z,1.20
2018-08-25T09:55:45.964Z,1.63
2018-08-25T09:58:15.334Z,6.57
2018-08-25T10:00:45.980Z,0.37
2018-08-25T10:03:15.322Z,0.30
2018-08-25T10:05:44.568Z,1.87
2018-08-25T10:08:13.885Z,1.50
2018-08-25T10:10:43.165Z,0.97
2018-08-25T10:13:19.024Z,0.40
2018-08-25T10:15:48.899Z,0.60
2018-08-25T10:18:20.886Z,0.40
2018-08-25T10:20:55.527Z,0.33
2018-08-25T10:23:25.168Z,1.47
2018-08-25T10:25:54.448Z,0.43
2018-08-25T10:28:23.843Z,0.97
2018-08-25T10:30:53.111Z,1.40
2018-08-25T10:33:22.914Z,0.20
2018-08-25T10:35:52.365Z,0.70
2018-08-25T10:38:21.611Z,0.70
2018-08-25T10:40:51.211Z,0.97
2018-08-25T10:43:20.743Z,0.73
2018-08-25T10:45:50.299Z,0.20
2018-08-25T10:48:19.576Z,1.53
2018-08-25T10:50:48.975Z,0.33
2018-08-25T10:53:18.288Z,0.10
2018-08-25T10:55:47.661Z,1.60
2018-08-25T10:58:16.930Z,0.43
2018-08-25T11:00:48.769Z,1.10
2018-08-25T11:03:17.923Z,0.63
2018-08-25T11:05:47.219Z,1.07
2018-08-25T11:08:16.586Z,0.67
2018-08-25T11:10:45.937Z,0.63
2018-08-25T11:13:15.247Z,0.80
2018-08-25T11:15:44.631Z,0.77
2018-08-25T11:18:13.920Z,0.77
2018-08-25T11:20:43.360Z,0.90
2018-08-25T11:23:12.742Z,1.90
2018-08-25T11:25:42.571Z,0.63
2018-08-25T11:28:12.068Z,1.73
2018-08-25T11:30:41.360Z,1.40
2018-08-25T11:33:10.699Z,0.50
2018-08-25T11:35:40.208Z,0.70
2018-08-25T11:38:09.828Z,1.43
2018-08-25T11:40:39.272Z,0.67
2018-08-25T11:43:08.616Z,0.90
2018-08-25T11:45:37.912Z,0.57
2018-08-25T11:48:07.182Z,1.10
2018-08-25T11:50:36.969Z,0.40
2018-08-25T11:53:06.523Z,1.73
2018-08-25T11:55:35.776Z,1.07
2018-08-25T11:58:05.101Z,2.93
2018-08-25T12:00:34.318Z,1.50
2018-08-25T12:03:03.835Z,0.87
2018-08-25T12:05:32.984Z,0.73
2018-08-25T12:08:02.327Z,0.80
2018-08-25T12:10:31.623Z,0.53
2018-08-25T12:13:01.024Z,1.03
2018-08-25T12:15:30.245Z,3.17
2018-08-25T12:17:59.630Z,0.67
2018-08-25T12:20:28.955Z,1.33
2018-08-25T12:22:58.246Z,0.93
2018-08-25T12:25:27.736Z,0.40
2018-08-25T12:27:57.276Z,2.53
2018-08-25T12:30:26.737Z,1.23
2018-08-25T12:32:56.015Z,1.93
2018-08-25T12:35:25.397Z,2.37
2018-08-25T12:37:54.644Z,1.80
2018-08-25T12:40:23.923Z,2.00
2018-08-25T12:42:53.190Z,1.90
2018-08-25T12:45:22.458Z,2.40
2018-08-25T12:47:51.792Z,1.60
2018-08-25T12:50:21.160Z,3.53
2018-08-25T12:52:50.392Z,2.63
2018-08-25T12:55:19.710Z,1.73
2018-08-25T12:57:49.034Z,1.33
2018-08-25T13:00:18.447Z,0.70
2018-08-25T13:02:47.806Z,1.83
2018-08-25T13:05:17.096Z,0.90
2018-08-25T13:07:50.250Z,6.37
2018-08-25T13:10:26.179Z,3.10
2018-08-25T13:12:55.523Z,2.20
2018-08-25T13:15:28.764Z,3.13
2018-08-25T13:17:58.043Z,1.03
2018-08-25T13:20:27.371Z,2.70
2018-08-25T13:22:56.658Z,1.70
2018-08-25T13:25:25.960Z,1.57
2018-08-25T13:27:55.227Z,1.57
2018-08-25T13:30:30.567Z,3.20
2018-08-25T13:32:59.828Z,2.10
2018-08-25T13:35:29.507Z,0.83
2018-08-25T13:38:00.905Z,2.10
2018-08-25T13:40:30.435Z,1.17
2018-08-25T13:42:59.697Z,1.10
2018-08-25T13:45:29.152Z,2.53
2018-08-25T13:47:58.457Z,1.37
2018-08-25T13:50:27.761Z,1.40
2018-08-25T13:52:57.162Z,1.17
2018-08-25T13:55:26.522Z,2.67
2018-08-25T13:57:55.805Z,1.03
2018-08-25T14:00:27.217Z,2.10
2018-08-25T14:02:56.870Z,1.23
2018-08-25T14:05:26.376Z,1.10
2018-08-25T14:07:55.746Z,2.00
2018-08-25T14:10:25.101Z,0.90
2018-08-25T14:12:54.388Z,0.73
2018-08-25T14:15:23.669Z,0.77
2018-08-25T14:17:52.970Z,1.73
2018-08-25T14:20:22.284Z,1.83
2018-08-25T14:22:51.615Z,2.77
2018-08-25T14:25:20.986Z,6.37
2018-08-25T14:27:50.359Z,3.30
2018-08-25T14:30:19.798Z,4.20
2018-08-25T14:32:49.123Z,4.30
2018-08-25T14:35:18.417Z,3.07
2018-08-25T14:37:47.720Z,2.33
2018-08-25T14:40:17.197Z,1.97
2018-08-25T14:42:46.471Z,3.53
2018-08-25T14:45:15.712Z,3.30
2018-08-25T14:47:45.022Z,3.73
2018-08-25T14:50:14.254Z,1.40
2018-08-25T14:52:43.574Z,0.77
2018-08-25T14:55:12.898Z,1.60
2018-08-25T14:57:42.199Z,3.13
2018-08-25T15:00:11.463Z,1.20
2018-08-25T15:02:40.770Z,3.80
2018-08-25T15:05:10.032Z,2.70
2018-08-25T15:07:39.369Z,3.57
2018-08-25T15:10:08.811Z,2.33
2018-08-25T15:12:38.128Z,2.03
2018-08-25T15:15:07.473Z,3.37
2018-08-25T15:17:36.736Z,3.07
2018-08-25T15:20:06.339Z,1.97
2018-08-25T15:22:35.587Z,1.90
2018-08-25T15:25:04.936Z,1.80
2018-08-25T15:27:34.759Z,1.67
2018-08-25T15:30:04.204Z,2.00
2018-08-25T15:32:33.451Z,2.73
2018-08-25T15:35:03.174Z,2.20
2018-08-25T15:37:32.559Z,2.13
2018-08-25T15:40:01.914Z,1.67
2018-08-25T15:42:31.139Z,1.20
2018-08-25T15:45:00.798Z,0.70
2018-08-25T15:47:30.106Z,0.63
2018-08-25T15:49:59.368Z,1.23
2018-08-25T15:52:28.708Z,2.30
2018-08-25T15:54:58.074Z,1.83
2018-08-25T15:57:27.415Z,1.50
2018-08-25T15:59:56.682Z,0.83
2018-08-25T16:02:26.013Z,0.63
2018-08-25T16:04:55.335Z,0.90
2018-08-25T16:07:24.580Z,1.13
2018-08-25T16:09:53.892Z,1.07
2018-08-25T16:12:23.265Z,0.93
2018-08-25T16:14:53.526Z,3.50
2018-08-25T16:17:22.771Z,0.60
2018-08-25T16:19:52.137Z,1.53
2018-08-25T16:22:21.318Z,1.10
2018-08-25T16:24:50.618Z,1.13
2018-08-25T16:27:19.909Z,0.90
2018-08-25T16:29:49.653Z,2.77
2018-08-25T16:32:18.911Z,1.27
2018-08-25T16:34:48.163Z,1.17
2018-08-25T16:37:17.535Z,1.47
2018-08-25T16:39:46.904Z,2.73
2018-08-25T16:42:16.234Z,0.90
2018-08-25T16:44:46.613Z,1.33
2018-08-25T16:47:15.966Z,1.90
2018-08-25T16:49:45.254Z,0.83
2018-08-25T16:52:14.567Z,2.97
2018-08-25T16:54:43.939Z,2.27
2018-08-25T16:57:13.185Z,1.77
2018-08-25T16:59:42.872Z,1.27
2018-08-25T17:02:12.345Z,2.10
2018-08-25T17:04:41.676Z,1.40
2018-08-25T17:07:10.999Z,2.27
2018-08-25T17:09:40.452Z,2.40
2018-08-25T17:12:10.009Z,1.00
2018-08-25T17:14:39.270Z,2.83
2018-08-25T17:17:08.618Z,1.03
2018-08-25T17:19:37.951Z,3.57
2018-08-25T17:22:07.404Z,1.20
2018-08-25T17:24:37.079Z,1.37
2018-08-25T17:27:06.497Z,2.03
2018-08-25T17:29:35.880Z,1.40
2018-08-25T17:32:05.299Z,1.00
2018-08-25T17:34:34.668Z,0.60
2018-08-25T17:37:04.006Z,1.83
2018-08-25T17:39:33.327Z,1.13
2018-08-25T17:42:02.592Z,2.30
2018-08-25T17:44:31.868Z,2.83
2018-08-25T17:47:01.154Z,1.80
2018-08-25T17:49:30.522Z,4.40
2018-08-25T17:51:59.831Z,1.07
2018-08-25T17:54:29.166Z,1.73
2018-08-25T17:56:58.612Z,1.07
2018-08-25T17:59:27.853Z,1.57
2018-08-25T18:01:57.195Z,1.13
2018-08-25T18:04:26.532Z,1.40
2018-08-25T18:06:55.819Z,1.07
2018-08-25T18:09:25.180Z,2.30
2018-08-25T18:11:55.117Z,2.73
2018-08-25T18:14:24.412Z,2.63
2018-08-25T18:16:53.759Z,1.10
2018-08-25T18:19:23.072Z,3.90
2018-08-25T18:21:52.324Z,2.53
2018-08-25T18:24:21.575Z,3.97
2018-08-25T18:26:50.818Z,1.63
2018-08-25T18:29:20.098Z,2.97
2018-08-25T18:31:49.483Z,1.33
2018-08-25T18:34:18.675Z,4.03
2018-08-25T18:36:48.076Z,2.17
2018-08-25T18:39:17.477Z,2.20
2018-08-25T18:41:46.749Z,3.67
2018-08-25T18:44:16.056Z,1.17
2018-08-25T18:46:45.420Z,1.43
2018-08-25T18:49:14.797Z,1.37
2018-08-25T18:51:44.058Z,1.80
2018-08-25T18:54:13.456Z,1.97
2018-08-25T18:56:42.805Z,1.00
2018-08-25T18:59:12.229Z,1.80
2018-08-25T19:01:41.510Z,3.10
2018-08-25T19:04:10.758Z,1.00
2018-08-25T19:06:40.086Z,0.60
2018-08-25T19:09:09.653Z,0.70
2018-08-25T19:11:38.910Z,0.73
2018-08-25T19:14:08.398Z,1.43
2018-08-25T19:16:37.929Z,1.03
2018-08-25T19:19:07.582Z,0.73
2018-08-25T19:21:36.823Z,1.60
2018-08-25T19:24:06.224Z,1.40
2018-08-25T19:26:35.467Z,0.80
2018-08-25T19:29:05.005Z,1.47
2018-08-25T19:31:34.569Z,0.73
2018-08-25T19:34:04.309Z,2.07
2018-08-25T19:36:33.675Z,1.30
2018-08-25T19:39:03.052Z,2.03
2018-08-25T19:41:32.342Z,0.93
2018-08-25T19:44:02.004Z,3.73
2018-08-25T19:46:34.676Z,1.93
2018-08-25T19:49:04.231Z,4.57
2018-08-25T19:51:33.615Z,1.07
2018-08-25T19:54:02.921Z,1.07
2018-08-25T19:56:32.203Z,2.70
2018-08-25T19:59:01.510Z,0.73
2018-08-25T20:01:30.811Z,1.53
2018-08-25T20:04:00.132Z,2.03
2018-08-25T20:06:29.404Z,3.00
2018-08-25T20:08:58.816Z,1.67
2018-08-25T20:11:28.047Z,2.40
2018-08-25T20:13:57.404Z,0.63
2018-08-25T20:16:26.671Z,3.20
2018-08-25T20:18:56.110Z,1.43
2018-08-25T20:21:25.427Z,0.87
2018-08-25T20:23:54.735Z,1.87
2018-08-25T20:26:24.207Z,2.57
2018-08-25T20:28:53.486Z,1.83
2018-08-25T20:31:22.785Z,1.07
2018-08-25T20:33:52.045Z,1.67
2018-08-25T20:36:21.381Z,2.47
2018-08-25T20:38:50.719Z,1.30
2018-08-25T20:41:19.954Z,2.60
2018-08-25T20:43:49.226Z,1.53
2018-08-25T20:46:18.507Z,5.03
2018-08-25T20:48:47.960Z,1.33
2018-08-25T20:51:17.259Z,2.20
2018-08-25T20:53:46.596Z,2.17
2018-08-25T20:56:15.811Z,1.07
2018-08-25T20:58:45.103Z,1.43
2018-08-25T21:01:14.426Z,2.00
2018-08-25T21:03:43.726Z,1.20
2018-08-25T21:06:13.038Z,3.30
2018-08-25T21:08:42.336Z,3.27
2018-08-25T21:11:12.167Z,2.47
2018-08-25T21:13:41.407Z,2.27
2018-08-25T21:16:12.031Z,1.53
2018-08-25T21:18:41.375Z,1.50
2018-08-25T21:21:10.673Z,1.90
2018-08-25T21:23:40.101Z,2.80
2018-08-25T21:26:09.516Z,1.73
2018-08-25T21:28:38.879Z,1.87
2018-08-25T21:31:08.276Z,1.97
2018-08-25T21:33:37.582Z,1.60
2018-08-25T21:36:07.000Z,1.27
2018-08-25T21:38:36.371Z,2.60
2018-08-25T21:41:05.706Z,2.80
2018-08-25T21:43:35.043Z,2.40
2018-08-25T21:46:04.359Z,5.13
2018-08-25T21:48:33.763Z,2.00
2018-08-25T21:51:03.144Z,3.10
2018-08-25T21:53:32.450Z,4.10
2018-08-25T21:56:01.891Z,2.07
2018-08-25T21:58:31.232Z,4.30
2018-08-25T22:01:00.547Z,2.73
2018-08-25T22:03:29.858Z,4.30
2018-08-25T22:05:59.103Z,4.17
2018-08-25T22:08:28.474Z,2.87
2018-08-25T22:10:57.878Z,2.60
2018-08-25T22:13:27.151Z,3.37
2018-08-25T22:15:56.488Z,2.97
2018-08-25T22:18:25.831Z,3.13
2018-08-25T22:20:55.074Z,5.03
2018-08-25T22:23:24.381Z,1.10
2018-08-25T22:25:53.617Z,2.83
2018-08-25T22:28:22.849Z,4.03
2018-08-25T22:30:52.213Z,3.20
2018-08-25T22:33:21.559Z,2.53
2018-08-25T22:35:50.947Z,1.23
2018-08-25T22:38:20.321Z,4.30
2018-08-25T22:40:50.612Z,1.83
2018-08-25T22:43:19.849Z,3.10
2018-08-25T22:45:49.147Z,4.00
2018-08-25T22:48:18.594Z,4.03
2018-08-25T22:50:47.944Z,3.40
2018-08-25T22:53:17.275Z,2.53
2018-08-25T22:55:46.593Z,2.00
2018-08-25T22:58:15.870Z,4.97
2018-08-25T23:00:45.170Z,1.60
2018-08-25T23:03:14.453Z,2.53
2018-08-25T23:05:43.742Z,1.83
2018-08-25T23:08:13.016Z,4.23
2018-08-25T23:10:42.279Z,2.37
2018-08-25T23:13:11.620Z,2.50
2018-08-25T23:15:41.013Z,6.30
2018-08-25T23:18:10.280Z,1.73
2018-08-25T23:20:39.703Z,2.83
2018-08-25T23:23:09.037Z,4.53
2018-08-25T23:25:38.326Z,1.90
2018-08-25T23:28:07.755Z,4.40
2018-08-25T23:30:44.843Z,3.63
2018-08-25T23:33:14.115Z,3.27
2018-08-25T23:35:43.488Z,3.87
2018-08-25T23:38:13.061Z,4.57
2018-08-25T23:40:42.347Z,3.07
2018-08-25T23:43:11.615Z,3.40
2018-08-25T23:45:40.942Z,3.63
2018-08-25T23:48:10.335Z,3.97
2018-08-25T23:50:39.891Z,2.83
2018-08-25T23:53:09.194Z,5.13
2018-08-25T23:55:38.526Z,3.83
2018-08-25T23:58:07.799Z,3.07
